2MeteoStar Phoenix Sky Harbor International Airport FORECAST
Forecast For: Phoenix, Arizona
Clear
 
Currently: Phoenix Sky Harbor International Airport 13:51 GMT
Weather:Clear Humidity:86%
Temperature:9 ° C Wind:CALM
Dew Point:7 ° C Pressure:1018 mb
Feels Like:9 ° C Visibility:16 km
Print Legend
24 Hour Weather Trace
Regional Observations
Daily Climate Plot
Monthly Climate Plot

Regional Radar Image
National Radar Image
Regional Satellite Image
National Satellite Image
Short Range Forecast Trace
Long Range Forecast Trace
NWS Forecast Discussion
16 Day Forecast
Radar For: Phoenix,AZ 12/18/2017 14:42 GMT
CLICK FOR LOOP




METAR:KPHX 181351Z 00000KT 10SM FEW120 FEW200 09/07 A3008 RMK AO2 SLP179 T00890067 =
TAF:

TAFPHX
TAF AMD
KPHX 181417Z 1814/1918 09004KT P6SM FEW120
FM182100 25006KT P6SM SKC
FM190600 10005KT P6SM SKC =

NWS Forecast for:
Greater Phoenix Area


Visit the MeteoStar Home Page